createdAt,value
2019-02-07T00:00:28.434Z,22.77
2019-02-07T00:03:01.434Z,22.87
2019-02-07T00:05:34.181Z,22.10
2019-02-07T00:08:06.942Z,22.13
2019-02-07T00:10:40.085Z,20.40
2019-02-07T00:13:12.540Z,19.93
2019-02-07T00:15:45.150Z,20.40
2019-02-07T00:18:17.909Z,21.53
2019-02-07T00:20:52.903Z,21.23
2019-02-07T00:23:25.308Z,20.90
2019-02-07T00:25:57.874Z,20.63
2019-02-07T00:28:30.329Z,20.10
2019-02-07T00:31:02.908Z,21.17
2019-02-07T00:33:35.484Z,19.40
2019-02-07T00:36:08.364Z,20.80
2019-02-07T00:38:41.189Z,19.33
2019-02-07T00:41:13.996Z,20.43
2019-02-07T00:43:46.701Z,21.00
2019-02-07T00:46:19.253Z,19.07
2019-02-07T00:48:51.992Z,18.17
2019-02-07T00:51:24.799Z,19.80
2019-02-07T00:53:57.604Z,20.50
2019-02-07T00:56:30.482Z,21.13
2019-02-07T00:59:03.409Z,21.27
2019-02-07T01:01:36.015Z,20.63
2019-02-07T01:04:08.806Z,20.23
2019-02-07T01:06:41.644Z,20.73
2019-02-07T01:09:14.710Z,20.57
2019-02-07T01:11:47.714Z,20.17
2019-02-07T01:14:20.231Z,20.47
2019-02-07T01:16:53.166Z,20.00
2019-02-07T01:19:25.988Z,19.40
2019-02-07T01:21:58.822Z,19.27
2019-02-07T01:24:31.235Z,18.63
2019-02-07T01:27:03.799Z,19.13
2019-02-07T01:29:36.411Z,18.90
2019-02-07T01:32:09.638Z,19.23
2019-02-07T01:34:42.336Z,18.73
2019-02-07T01:37:15.211Z,19.27
2019-02-07T01:39:47.904Z,19.63
2019-02-07T01:42:20.676Z,19.87
2019-02-07T01:44:53.681Z,18.93
2019-02-07T01:47:26.374Z,18.40
2019-02-07T01:49:58.980Z,19.13
2019-02-07T01:52:31.668Z,20.57
2019-02-07T01:55:04.598Z,20.13
2019-02-07T01:57:37.221Z,18.77
2019-02-07T02:00:13.379Z,19.30
2019-02-07T02:02:46.150Z,20.93
2019-02-07T02:05:19.711Z,19.90
2019-02-07T02:07:52.945Z,20.73
2019-02-07T02:10:27.821Z,19.57
2019-02-07T02:13:00.422Z,18.23
2019-02-07T02:15:33.124Z,19.43
2019-02-07T02:18:06.008Z,20.10
2019-02-07T02:20:38.570Z,21.93
2019-02-07T02:23:11.140Z,21.13
2019-02-07T02:25:43.844Z,21.30
2019-02-07T02:28:16.444Z,20.13
2019-02-07T02:30:49.262Z,19.67
2019-02-07T02:33:22.102Z,37.23
2019-02-07T02:35:54.650Z,22.57
2019-02-07T02:38:27.337Z,20.50
2019-02-07T02:41:00.116Z,21.00
2019-02-07T02:43:32.712Z,21.37
2019-02-07T02:46:05.528Z,23.37
2019-02-07T02:48:38.979Z,22.00
2019-02-07T02:51:11.552Z,21.90
2019-02-07T02:53:44.349Z,20.90
2019-02-07T02:56:16.862Z,20.70
2019-02-07T02:58:49.437Z,23.27
2019-02-07T03:01:36.470Z,22.00
2019-02-07T03:04:31.252Z,21.43
2019-02-07T03:07:19.970Z,21.43
2019-02-07T03:10:24.537Z,22.57
2019-02-07T03:13:27.144Z,23.43
2019-02-07T03:16:17.227Z,22.47
2019-02-07T03:19:01.518Z,21.77
2019-02-07T03:21:58.492Z,22.00
2019-02-07T03:24:49.977Z,23.40
2019-02-07T03:27:41.428Z,23.13
2019-02-07T03:30:48.666Z,23.33
2019-02-07T03:33:55.128Z,23.73
2019-02-07T03:36:37.169Z,23.30
2019-02-07T03:39:22.710Z,22.80
2019-02-07T03:42:08.777Z,23.10
2019-02-07T03:44:59.162Z,23.77
2019-02-07T03:47:57.016Z,23.73
2019-02-07T03:50:54.440Z,24.70
2019-02-07T03:53:52.564Z,24.53
2019-02-07T03:56:33.506Z,24.70
2019-02-07T03:59:27.941Z,24.67
2019-02-07T04:02:34.738Z,24.30
2019-02-07T04:05:20.456Z,25.47
2019-02-07T04:08:22.275Z,26.77
2019-02-07T04:11:12.516Z,26.17
2019-02-07T04:14:16.418Z,28.17
2019-02-07T04:17:26.135Z,28.03
2019-02-07T04:20:20.900Z,26.17
2019-02-07T04:23:05.219Z,26.60
2019-02-07T04:25:56.735Z,26.37
2019-02-07T04:28:59.831Z,26.10
2019-02-07T04:31:43.543Z,28.40
2019-02-07T04:34:33.691Z,28.47
2019-02-07T04:37:23.970Z,29.47
2019-02-07T04:40:13.693Z,29.90
2019-02-07T04:43:09.141Z,30.70
2019-02-07T04:45:56.606Z,34.33
2019-02-07T04:48:57.570Z,33.00
2019-02-07T04:52:04.520Z,36.70
2019-02-07T04:54:48.539Z,36.43
2019-02-07T04:57:32.541Z,36.73
2019-02-07T05:00:27.606Z,42.70
2019-02-07T05:03:22.313Z,42.63
2019-02-07T05:06:02.702Z,42.93
2019-02-07T05:08:54.332Z,45.63
2019-02-07T05:11:45.510Z,43.77
2019-02-07T05:14:55.115Z,46.07
2019-02-07T05:17:48.985Z,47.83
2019-02-07T05:20:43.144Z,45.03
2019-02-07T05:23:46.949Z,45.20
2019-02-07T05:26:30.653Z,43.50
2019-02-07T05:29:27.926Z,48.07
2019-02-07T05:32:24.856Z,44.43
2019-02-07T05:35:14.855Z,46.87
2019-02-07T05:38:05.076Z,46.67
2019-02-07T05:40:55.011Z,47.53
2019-02-07T05:43:40.162Z,46.07
2019-02-07T05:46:28.986Z,44.47
2019-02-07T05:49:20.865Z,45.80
2019-02-07T05:52:10.975Z,44.93
2019-02-07T05:55:01.011Z,45.67
2019-02-07T05:58:03.800Z,44.97
2019-02-07T06:00:55.544Z,43.87
2019-02-07T06:03:36.276Z,46.30
2019-02-07T06:06:45.634Z,47.03
2019-02-07T06:09:36.964Z,46.03
2019-02-07T06:12:26.636Z,46.53
2019-02-07T06:15:36.768Z,45.80
2019-02-07T06:18:26.996Z,44.60
2019-02-07T06:21:24.467Z,48.40
2019-02-07T06:24:16.360Z,45.83
2019-02-07T06:27:05.381Z,47.17
2019-02-07T06:29:56.614Z,45.53
2019-02-07T06:32:46.775Z,46.50
2019-02-07T06:35:40.925Z,46.20
2019-02-07T06:38:30.932Z,45.63
2019-02-07T06:41:16.946Z,43.90
2019-02-07T06:44:17.198Z,49.03
2019-02-07T06:47:13.534Z,45.37
2019-02-07T06:50:04.104Z,46.67
2019-02-07T06:52:55.974Z,46.60
2019-02-07T06:55:59.686Z,46.23
2019-02-07T06:58:49.832Z,47.80
2019-02-07T07:01:46.668Z,48.00
2019-02-07T07:04:56.177Z,52.80
2019-02-07T07:07:56.388Z,45.33
2019-02-07T07:10:50.699Z,45.03
2019-02-07T07:13:40.873Z,44.97
2019-02-07T07:16:47.471Z,44.23
2019-02-07T07:19:37.272Z,49.00
2019-02-07T07:22:28.716Z,48.73
2019-02-07T07:25:11.065Z,46.67
2019-02-07T07:28:02.591Z,46.53
2019-02-07T07:31:01.465Z,45.00
2019-02-07T07:34:07.712Z,44.17
2019-02-07T07:36:59.440Z,43.73
2019-02-07T07:39:56.934Z,42.87
2019-02-07T07:42:47.209Z,43.20
2019-02-07T07:45:42.138Z,42.23
2019-02-07T07:48:33.369Z,40.40
2019-02-07T07:51:37.074Z,41.70
2019-02-07T07:54:27.316Z,41.50
2019-02-07T07:57:18.745Z,41.17
2019-02-07T08:00:05.699Z,41.27
2019-02-07T08:02:59.823Z,39.33
2019-02-07T08:05:49.434Z,44.30
2019-02-07T08:08:34.459Z,42.83
2019-02-07T08:11:26.964Z,41.53
2019-02-07T08:14:27.722Z,40.33
2019-02-07T08:17:17.827Z,41.07
2019-02-07T08:20:04.611Z,41.70
2019-02-07T08:22:54.943Z,40.87
2019-02-07T08:25:55.683Z,40.20
2019-02-07T08:28:53.060Z,40.23
2019-02-07T08:31:43.285Z,40.40
2019-02-07T08:34:36.193Z,40.17
2019-02-07T08:37:36.701Z,40.80
2019-02-07T08:40:28.992Z,37.07
2019-02-07T08:43:26.422Z,39.53
2019-02-07T08:46:32.730Z,42.87
2019-02-07T08:49:23.298Z,38.97
2019-02-07T08:52:07.507Z,39.40
2019-02-07T08:55:11.121Z,43.97
2019-02-07T08:58:14.728Z,38.07
2019-02-07T09:01:06.159Z,38.77
2019-02-07T09:03:56.371Z,34.67
2019-02-07T09:06:53.737Z,37.03
2019-02-07T09:09:48.379Z,37.63
2019-02-07T09:12:39.357Z,37.57
2019-02-07T09:15:34.022Z,38.53
2019-02-07T09:18:34.247Z,36.80
2019-02-07T09:21:23.144Z,36.07
2019-02-07T09:24:17.460Z,37.13
2019-02-07T09:27:24.271Z,38.83
2019-02-07T09:30:14.966Z,38.20
2019-02-07T09:33:12.684Z,37.47
2019-02-07T09:36:05.383Z,39.00
2019-02-07T09:38:54.830Z,37.87
2019-02-07T09:41:45.943Z,37.43
2019-02-07T09:44:45.012Z,37.30
2019-02-07T09:47:36.183Z,42.70
2019-02-07T09:50:28.435Z,39.00
2019-02-07T09:53:06.558Z,40.90
2019-02-07T09:55:56.531Z,37.97
2019-02-07T09:59:06.041Z,46.10
2019-02-07T10:02:03.402Z,40.83
2019-02-07T10:04:43.381Z,43.63
2019-02-07T10:07:40.746Z,43.00
2019-02-07T10:10:35.442Z,42.00
2019-02-07T10:13:20.536Z,40.33
2019-02-07T10:16:24.168Z,38.77
2019-02-07T10:19:10.952Z,41.77
2019-02-07T10:22:04.934Z,40.47
2019-02-07T10:24:52.707Z,38.33
2019-02-07T10:27:42.930Z,38.17
2019-02-07T10:30:38.231Z,45.17
2019-02-07T10:33:41.998Z,40.07
2019-02-07T10:36:52.383Z,36.63
2019-02-07T10:39:38.214Z,40.70
2019-02-07T10:42:35.684Z,36.43
2019-02-07T10:45:29.293Z,33.27
2019-02-07T10:48:20.699Z,34.00
2019-02-07T10:51:20.847Z,33.13
2019-02-07T10:54:15.462Z,34.43
2019-02-07T10:57:05.929Z,31.10
2019-02-07T10:59:57.180Z,34.73
2019-02-07T11:03:00.670Z,33.43
2019-02-07T11:05:50.616Z,28.07
2019-02-07T11:08:43.243Z,27.57
2019-02-07T11:11:45.909Z,27.17
2019-02-07T11:14:37.803Z,25.83
2019-02-07T11:17:32.002Z,25.80
2019-02-07T11:20:42.178Z,24.60
2019-02-07T11:23:42.306Z,25.97
2019-02-07T11:26:39.417Z,25.47
2019-02-07T11:29:29.622Z,24.63
2019-02-07T11:32:15.279Z,27.37
2019-02-07T11:35:23.826Z,25.30
2019-02-07T11:38:14.077Z,25.03
2019-02-07T11:41:20.612Z,26.03
2019-02-07T11:44:08.346Z,24.73
2019-02-07T11:47:05.304Z,26.33
2019-02-07T11:49:53.023Z,24.20
2019-02-07T11:52:50.193Z,25.33
2019-02-07T11:55:40.771Z,24.13
2019-02-07T11:58:35.736Z,23.63
2019-02-07T12:01:36.803Z,24.23
2019-02-07T12:04:20.449Z,22.70
2019-02-07T12:07:11.781Z,22.10
2019-02-07T12:10:02.893Z,21.37
2019-02-07T12:13:04.624Z,20.67
2019-02-07T12:15:53.857Z,21.80
2019-02-07T12:18:44.768Z,21.20
2019-02-07T12:21:36.480Z,23.43
2019-02-07T12:24:26.778Z,21.53
2019-02-07T12:27:23.175Z,21.40
2019-02-07T12:30:18.637Z,22.07
2019-02-07T12:33:28.090Z,22.23
2019-02-07T12:36:19.389Z,21.00
2019-02-07T12:38:58.468Z,21.67
2019-02-07T12:42:08.035Z,21.13
2019-02-07T12:44:52.480Z,20.23
2019-02-07T12:47:44.549Z,21.37
2019-02-07T12:50:48.112Z,20.30
2019-02-07T12:53:38.932Z,21.00
2019-02-07T12:56:24.384Z,20.57
2019-02-07T12:59:24.854Z,20.50
2019-02-07T13:02:25.553Z,18.93
2019-02-07T13:05:15.263Z,21.03
2019-02-07T13:08:15.599Z,19.00
2019-02-07T13:11:05.863Z,20.03
2019-02-07T13:13:57.383Z,19.80
2019-02-07T13:16:54.127Z,19.90
2019-02-07T13:19:51.169Z,21.03
2019-02-07T13:22:40.871Z,19.80
2019-02-07T13:25:38.540Z,20.20
2019-02-07T13:28:48.050Z,19.33
2019-02-07T13:31:38.242Z,18.37
2019-02-07T13:34:41.249Z,18.97
2019-02-07T13:37:50.690Z,18.90
2019-02-07T13:40:35.875Z,19.07
2019-02-07T13:43:27.491Z,18.30
2019-02-07T13:46:21.606Z,19.57
2019-02-07T13:49:15.835Z,19.47
2019-02-07T13:52:04.374Z,18.83
2019-02-07T13:54:56.066Z,19.57
2019-02-07T13:57:48.682Z,19.37
2019-02-07T14:00:43.000Z,18.00
2019-02-07T14:03:47.222Z,18.87
2019-02-07T14:06:49.005Z,19.30
2019-02-07T14:09:31.750Z,21.73
2019-02-07T14:12:15.297Z,18.60
2019-02-07T14:15:09.286Z,17.97
2019-02-07T14:18:13.007Z,18.27
2019-02-07T14:21:04.465Z,19.50
2019-02-07T14:24:07.874Z,26.20
2019-02-07T14:27:17.721Z,19.83
2019-02-07T14:30:03.106Z,18.20
2019-02-07T14:32:53.101Z,25.20
2019-02-07T14:35:43.198Z,20.73
2019-02-07T14:38:33.476Z,17.00
2019-02-07T14:41:34.148Z,18.00
2019-02-07T14:44:31.495Z,24.73
2019-02-07T14:47:03.940Z,22.03
2019-02-07T14:49:36.374Z,16.30
2019-02-07T14:52:10.423Z,18.60
2019-02-07T14:54:42.857Z,18.87
2019-02-07T14:57:15.864Z,18.77
2019-02-07T14:59:48.316Z,18.53
2019-02-07T15:02:21.657Z,17.37
2019-02-07T15:04:54.164Z,18.13
2019-02-07T15:07:28.335Z,18.20
2019-02-07T15:10:00.764Z,18.00
2019-02-07T15:12:33.079Z,18.67
2019-02-07T15:15:06.582Z,17.23
2019-02-07T15:17:38.959Z,17.83
2019-02-07T15:20:12.112Z,16.50
2019-02-07T15:22:44.727Z,17.53
2019-02-07T15:25:17.569Z,16.60
2019-02-07T15:27:50.220Z,18.77
2019-02-07T15:30:41.943Z,19.23
2019-02-07T15:33:14.352Z,19.30
2019-02-07T15:35:51.217Z,19.03
2019-02-07T15:38:23.630Z,24.43
2019-02-07T15:40:56.664Z,25.60
2019-02-07T15:43:29.750Z,27.03
2019-02-07T15:46:02.837Z,27.87
2019-02-07T15:48:35.462Z,28.57
2019-02-07T15:51:08.816Z,29.73
2019-02-07T15:53:41.196Z,29.47
2019-02-07T15:56:13.795Z,30.27
2019-02-07T15:59:05.575Z,29.93
2019-02-07T16:01:45.680Z,29.43
2019-02-07T16:04:25.194Z,33.97
2019-02-07T16:06:57.601Z,33.63
2019-02-07T16:09:30.132Z,33.70
2019-02-07T16:12:02.522Z,32.47
2019-02-07T16:14:35.332Z,34.93
2019-02-07T16:17:08.140Z,38.57
2019-02-07T16:19:40.719Z,40.03
2019-02-07T16:22:13.499Z,34.97
2019-02-07T16:24:46.065Z,38.37
2019-02-07T16:27:18.653Z,41.63
2019-02-07T16:29:51.014Z,40.77
2019-02-07T16:32:23.918Z,37.10
2019-02-07T16:34:56.835Z,40.40
2019-02-07T16:37:29.815Z,33.60
2019-02-07T16:40:02.838Z,31.30
2019-02-07T16:42:35.242Z,30.83
2019-02-07T16:45:12.670Z,34.63
2019-02-07T16:47:45.524Z,31.87
2019-02-07T16:50:21.032Z,31.53
2019-02-07T16:52:53.650Z,33.10
2019-02-07T16:55:26.763Z,30.20
2019-02-07T16:57:59.301Z,31.90
2019-02-07T17:00:32.414Z,32.77
2019-02-07T17:03:05.518Z,29.87
2019-02-07T17:05:38.555Z,31.47
2019-02-07T17:08:11.299Z,31.23
2019-02-07T17:10:43.811Z,30.77
2019-02-07T17:13:16.500Z,29.83
2019-02-07T17:15:49.498Z,32.30
2019-02-07T17:18:22.479Z,46.03
2019-02-07T17:20:55.473Z,43.50
2019-02-07T17:23:39.175Z,31.67
2019-02-07T17:26:13.547Z,29.37
2019-02-07T17:28:46.119Z,30.27
2019-02-07T17:31:18.698Z,32.57
2019-02-07T17:33:51.286Z,32.30
2019-02-07T17:36:23.891Z,33.97
2019-02-07T17:38:56.281Z,30.10
2019-02-07T17:41:28.701Z,29.73
2019-02-07T17:44:02.670Z,29.43
2019-02-07T17:46:35.739Z,28.33
2019-02-07T17:49:08.525Z,30.67
2019-02-07T17:51:40.949Z,30.73
2019-02-07T17:54:18.961Z,30.27
2019-02-07T17:56:47.855Z,28.60
2019-02-07T17:59:20.540Z,29.43
2019-02-07T18:01:53.039Z,31.47
2019-02-07T18:04:25.604Z,30.87
2019-02-07T18:06:58.356Z,28.80
2019-02-07T18:09:32.355Z,30.03
2019-02-07T18:12:05.064Z,40.23
2019-02-07T18:14:37.982Z,34.43
2019-02-07T18:17:10.994Z,42.90
2019-02-07T18:19:43.904Z,33.10
2019-02-07T18:22:16.619Z,30.77
2019-02-07T18:24:49.292Z,30.53
2019-02-07T18:27:22.246Z,29.90
2019-02-07T18:29:54.915Z,32.57
2019-02-07T18:32:27.568Z,33.30
2019-02-07T18:35:00.339Z,30.57
2019-02-07T18:37:32.859Z,32.23
2019-02-07T18:40:06.911Z,32.30
2019-02-07T18:42:39.628Z,32.73
2019-02-07T18:45:13.472Z,36.10
2019-02-07T18:47:47.915Z,35.37
2019-02-07T18:50:28.568Z,36.90
2019-02-07T18:53:01.309Z,33.50
2019-02-07T18:55:34.427Z,32.97
2019-02-07T18:58:07.597Z,31.57
2019-02-07T19:00:40.257Z,32.73
2019-02-07T19:03:13.085Z,39.13
2019-02-07T19:05:45.925Z,40.03
2019-02-07T19:08:18.241Z,36.53
2019-02-07T19:10:51.036Z,33.37
2019-02-07T19:13:34.712Z,33.57
2019-02-07T19:16:18.986Z,41.13
2019-02-07T19:18:51.650Z,34.63
2019-02-07T19:21:24.117Z,35.03
2019-02-07T19:23:56.645Z,33.83
2019-02-07T19:26:29.304Z,45.97
2019-02-07T19:29:02.007Z,54.97
2019-02-07T19:31:34.841Z,35.77
2019-02-07T19:34:07.825Z,36.07
2019-02-07T19:36:40.563Z,35.00
2019-02-07T19:39:13.509Z,34.53
2019-02-07T19:41:46.425Z,34.63
2019-02-07T19:44:18.988Z,32.73
2019-02-07T19:46:51.348Z,33.67
2019-02-07T19:49:23.832Z,33.80
2019-02-07T19:52:07.729Z,38.70
2019-02-07T19:54:30.943Z,37.00
2019-02-07T19:57:03.524Z,35.03
2019-02-07T19:59:36.263Z,33.50
2019-02-07T20:02:08.949Z,32.63
2019-02-07T20:04:41.739Z,32.53
2019-02-07T20:07:14.866Z,33.40
2019-02-07T20:09:47.717Z,32.57
2019-02-07T20:12:20.350Z,30.00
2019-02-07T20:14:52.775Z,30.07
2019-02-07T20:17:25.307Z,30.43
2019-02-07T20:19:58.245Z,31.47
2019-02-07T20:22:30.695Z,30.93
2019-02-07T20:25:03.218Z,39.37
2019-02-07T20:27:35.788Z,38.13
2019-02-07T20:30:28.218Z,33.17
2019-02-07T20:33:01.019Z,32.10
2019-02-07T20:35:33.516Z,32.37
2019-02-07T20:38:07.197Z,32.20
2019-02-07T20:40:40.513Z,32.33
2019-02-07T20:43:13.242Z,32.60
2019-02-07T20:45:45.966Z,31.43
2019-02-07T20:48:18.609Z,32.07
2019-02-07T20:50:51.310Z,31.60
2019-02-07T20:53:23.684Z,32.80
2019-02-07T20:55:56.280Z,31.87
2019-02-07T20:58:28.904Z,32.03
2019-02-07T21:01:01.556Z,30.53
2019-02-07T21:03:34.650Z,30.73
2019-02-07T21:06:07.476Z,33.63
2019-02-07T21:08:40.290Z,30.77
2019-02-07T21:11:13.060Z,31.07
2019-02-07T21:13:45.777Z,29.77
2019-02-07T21:16:18.847Z,32.63
2019-02-07T21:18:51.766Z,32.53
2019-02-07T21:21:24.292Z,33.67
2019-02-07T21:23:57.670Z,33.87
2019-02-07T21:26:30.230Z,31.93
2019-02-07T21:29:02.696Z,32.83
2019-02-07T21:31:35.137Z,29.67
2019-02-07T21:34:07.849Z,29.83
2019-02-07T21:36:40.429Z,31.23
2019-02-07T21:39:13.842Z,58.67
2019-02-07T21:41:46.618Z,47.10
2019-02-07T21:44:19.075Z,34.43
2019-02-07T21:46:51.737Z,37.37
2019-02-07T21:49:24.208Z,33.43
2019-02-07T21:51:56.836Z,30.00
2019-02-07T21:54:29.189Z,31.20
2019-02-07T21:57:02.756Z,31.33
2019-02-07T21:59:35.209Z,30.27
2019-02-07T22:02:07.894Z,29.93
2019-02-07T22:04:40.411Z,31.43
2019-02-07T22:07:13.105Z,30.57
2019-02-07T22:09:46.044Z,29.20
2019-02-07T22:12:18.429Z,29.63
2019-02-07T22:14:50.945Z,30.77
2019-02-07T22:17:23.555Z,31.90
2019-02-07T22:19:56.173Z,31.57
2019-02-07T22:22:29.257Z,29.93
2019-02-07T22:25:01.744Z,30.90
2019-02-07T22:27:34.424Z,36.10
2019-02-07T22:30:10.569Z,44.50
2019-02-07T22:32:43.321Z,33.90
2019-02-07T22:35:15.845Z,31.03
2019-02-07T22:37:48.514Z,30.50
2019-02-07T22:40:23.386Z,30.83
2019-02-07T22:42:56.471Z,32.23
2019-02-07T22:45:29.607Z,31.03
2019-02-07T22:48:02.326Z,32.27
2019-02-07T22:50:34.990Z,31.80
2019-02-07T22:53:08.884Z,30.50
2019-02-07T22:55:41.595Z,31.27
2019-02-07T22:58:14.458Z,31.13
2019-02-07T23:01:25.334Z,31.00
2019-02-07T23:04:00.806Z,30.57
2019-02-07T23:06:33.484Z,29.53
2019-02-07T23:09:10.030Z,31.37
2019-02-07T23:11:42.910Z,30.67
2019-02-07T23:14:19.194Z,30.30
2019-02-07T23:16:52.167Z,29.43
2019-02-07T23:19:25.013Z,31.17
2019-02-07T23:21:57.601Z,30.07
2019-02-07T23:24:30.299Z,31.33
2019-02-07T23:27:02.896Z,30.40
2019-02-07T23:29:37.463Z,30.53
2019-02-07T23:32:10.195Z,29.37
2019-02-07T23:34:42.825Z,30.10
2019-02-07T23:37:15.633Z,30.47
2019-02-07T23:39:48.001Z,35.47
2019-02-07T23:42:20.560Z,35.37
2019-02-07T23:44:53.208Z,34.33
2019-02-07T23:47:26.040Z,34.23
2019-02-07T23:49:58.752Z,32.10
2019-02-07T23:52:31.066Z,32.33
2019-02-07T23:55:03.735Z,30.17
2019-02-07T23:57:36.103Z,28.53
